Amargosa, Brazil
Current Conditions -  °F | °C
As of 12:00 AM on Saturday 25 Oct 2014 (Local Time) from SBSV Reporting Station
Scattered Clouds Scattered Clouds  
Wind Chill: 77°   Ceiling: Unl
Heat Index: 79°   Visibility: 6mi
Dew Point: 66°   Wind: 10mph
Humidity: 69%   Direction: 90°E
Pressure: 29.94"   Gusts: NA
Location:  13.03°S, 39.6°W
Report Text: SBSV 250300Z 09009KT 9999 SCT017 25/19 Q1014
Loading
Personal Weather Stations






























Interactive Weather Map
Tropical Storm Tracking
New forecast layout! Learn more

10-Day Weather Forecast

Advertisements
Track Severe Weather on mobile